Time;durP1;ratioP1;P1;durP2;ratioP2;P2;SDS_P1;SDS_P2;PMS_P1;PMS_P2;Temp;Humidity;BMP_temperature;BMP_pressure;BME280_temperature;BME280_humidity;BME280_pressure;Samples;Min_cycle;Max_cycle;Signal;HPM_P1;HPM_P2
2024/03/03 00:00:27;;;;;;;;;;;21.80;38.50;;;;;;3052703;19;4700;-29
2024/03/03 00:01:27;;;;;;;;;;;21.70;38.40;;;;;;3031239;19;4567;-29
2024/03/03 00:02:28;;;;;;;;;;;21.70;38.40;;;;;;3052914;19;4688;-23
2024/03/03 00:03:28;;;;;;;;;;;21.70;38.50;;;;;;3052991;19;4874;-24
2024/03/03 00:04:29;;;;;;;;;;;21.70;38.50;;;;;;3031293;19;4882;-23
2024/03/03 00:05:30;;;;;;;;;;;21.70;38.50;;;;;;3052126;19;4705;-24
2024/03/03 00:06:31;;;;;;;;;;;21.90;38.60;;;;;;3031529;19;4697;-24
2024/03/03 00:07:32;;;;;;;;;;;21.70;38.50;;;;;;3052575;19;4728;-24
2024/03/03 00:08:33;;;;;;;;;;;21.70;38.40;;;;;;3053043;19;4731;-23
2024/03/03 00:09:33;;;;;;;;;;;21.70;38.40;;;;;;3030417;19;4585;-24
2024/03/03 00:10:34;;;;;;;;;;;22.30;38.70;;;;;;3052746;19;4717;-25
2024/03/03 00:11:35;;;;;;;;;;;21.60;38.40;;;;;;3052818;19;4695;-24
2024/03/03 00:12:35;;;;;;;;;;;21.30;38.20;;;;;;3031484;19;4562;-29
2024/03/03 00:13:36;;;;;;;;;;;21.70;38.40;;;;;;3052872;19;4662;-29
2024/03/03 00:14:36;;;;;;;;;;;21.70;38.50;;;;;;3031501;19;4914;-29
2024/03/03 00:15:37;;;;;;;;;;;21.70;38.40;;;;;;3052200;19;4681;-29
2024/03/03 00:16:41;;;;;;;;;;;21.70;38.50;;;;;;3053219;19;4904;-29
2024/03/03 00:17:42;;;;;;;;;;;21.70;38.50;;;;;;3030988;19;5326;-29
2024/03/03 00:18:43;;;;;;;;;;;21.70;38.50;;;;;;3053037;19;4696;-29
2024/03/03 00:19:43;;;;;;;;;;;21.70;38.50;;;;;;3031000;19;4652;-29
2024/03/03 00:20:44;;;;;;;;;;;21.70;38.50;;;;;;3052446;19;4634;-29
2024/03/03 00:21:45;;;;;;;;;;;21.70;38.50;;;;;;3052766;19;4664;-29
2024/03/03 00:22:45;;;;;;;;;;;21.60;38.50;;;;;;3031131;19;4950;-29
2024/03/03 00:23:46;;;;;;;;;;;21.60;38.60;;;;;;3052673;19;4618;-29
2024/03/03 00:24:46;;;;;;;;;;;21.60;38.50;;;;;;3052537;19;4786;-29
2024/03/03 00:25:47;;;;;;;;;;;21.60;38.50;;;;;;3030420;19;4498;-29
2024/03/03 00:26:49;;;;;;;;;;;21.60;38.50;;;;;;3052544;19;4659;-29
2024/03/03 00:27:49;;;;;;;;;;;21.60;38.50;;;;;;3031046;19;4857;-29
2024/03/03 00:28:50;;;;;;;;;;;21.60;38.50;;;;;;3052738;19;4718;-29
2024/03/03 00:29:51;;;;;;;;;;;21.60;38.50;;;;;;3052727;19;4796;-29
2024/03/03 00:30:52;;;;;;;;;;;21.60;38.50;;;;;;3030507;19;4789;-29
2024/03/03 00:31:52;;;;;;;;;;;21.60;38.60;;;;;;3051704;19;4657;-29
2024/03/03 00:32:53;;;;;;;;;;;21.60;38.50;;;;;;3052258;19;4629;-29
2024/03/03 00:33:54;;;;;;;;;;;21.50;38.50;;;;;;3029783;19;4568;-29
2024/03/03 00:34:55;;;;;;;;;;;21.60;38.60;;;;;;3052258;19;4705;-29
2024/03/03 00:35:56;;;;;;;;;;;21.70;38.70;;;;;;3030618;19;4691;-29
2024/03/03 00:36:56;;;;;;;;;;;21.60;38.60;;;;;;3052228;19;4695;-29
2024/03/03 00:37:57;;;;;;;;;;;21.90;38.70;;;;;;3052003;19;4700;-29
2024/03/03 00:38:59;;;;;;;;;;;21.60;38.50;;;;;;3030698;19;4592;-29
2024/03/03 00:40:00;;;;;;;;;;;21.60;38.60;;;;;;3052615;19;4682;-28
2024/03/03 00:41:00;;;;;;;;;;;21.60;38.70;;;;;;3052697;19;4699;-29
2024/03/03 00:42:02;;;;;;;;;;;21.60;38.50;;;;;;3030142;19;4619;-29
2024/03/03 00:43:03;;;;;;;;;;;21.60;38.60;;;;;;3051272;19;4699;-29
2024/03/03 00:44:04;;;;;;;;;;;21.60;38.60;;;;;;3029790;19;4600;-29
2024/03/03 00:45:05;;;;;;;;;;;21.60;38.60;;;;;;3052003;19;4625;-29
2024/03/03 00:46:05;;;;;;;;;;;21.60;38.60;;;;;;3052509;19;4642;-29
2024/03/03 00:47:06;;;;;;;;;;;21.60;38.60;;;;;;3029851;19;4441;-29
2024/03/03 00:48:07;;;;;;;;;;;21.60;38.50;;;;;;3050558;19;4643;-28
2024/03/03 00:49:07;;;;;;;;;;;21.60;38.50;;;;;;3030031;19;5591;-28
2024/03/03 00:50:08;;;;;;;;;;;21.60;38.50;;;;;;3052149;19;992;-30
2024/03/03 00:51:09;;;;;;;;;;;21.50;38.50;;;;;;3051439;19;4599;-29
2024/03/03 00:52:10;;;;;;;;;;;21.60;38.60;;;;;;3029360;19;4824;-29
2024/03/03 00:53:10;;;;;;;;;;;21.50;38.50;;;;;;3051682;19;4856;-29
2024/03/03 00:54:11;;;;;;;;;;;21.50;38.60;;;;;;3052217;19;4757;-29
2024/03/03 00:55:12;;;;;;;;;;;21.50;38.60;;;;;;3030246;19;4679;-29
2024/03/03 00:56:12;;;;;;;;;;;21.50;38.60;;;;;;3051802;19;4890;-28
2024/03/03 00:57:13;;;;;;;;;;;21.50;38.60;;;;;;3030881;19;4656;-29
2024/03/03 00:58:14;;;;;;;;;;;21.50;38.60;;;;;;3051918;19;4668;-27
2024/03/03 00:59:15;;;;;;;;;;;21.50;38.60;;;;;;3051092;19;4685;-29
2024/03/03 01:00:16;;;;;;;;;;;21.90;38.80;;;;;;3028793;19;4714;-29
2024/03/03 01:01:17;;;;;;;;;;;21.50;38.70;;;;;;3050268;19;4767;-29
2024/03/03 01:02:18;;;;;;;;;;;21.50;38.60;;;;;;3052925;19;4685;-29
2024/03/03 01:03:19;;;;;;;;;;;21.60;38.70;;;;;;3030548;19;4626;-29
2024/03/03 01:04:19;;;;;;;;;;;21.50;38.60;;;;;;3052236;19;4784;-29
2024/03/03 01:05:20;;;;;;;;;;;21.50;38.60;;;;;;3030682;19;4557;-29
2024/03/03 01:06:21;;;;;;;;;;;21.50;38.70;;;;;;3051252;19;4886;-28
2024/03/03 01:07:22;;;;;;;;;;;21.50;38.70;;;;;;3052037;19;5666;-29
2024/03/03 01:08:22;;;;;;;;;;;21.90;38.90;;;;;;3029923;19;4799;-29
2024/03/03 01:09:23;;;;;;;;;;;21.50;38.60;;;;;;3052378;19;4696;-29
2024/03/03 01:10:24;;;;;;;;;;;21.50;38.60;;;;;;3030672;19;4703;-29
2024/03/03 01:11:25;;;;;;;;;;;21.50;38.60;;;;;;3051519;19;4646;-29
2024/03/03 01:12:25;;;;;;;;;;;21.50;38.60;;;;;;3051055;19;4750;-29
2024/03/03 01:13:26;;;;;;;;;;;21.50;38.60;;;;;;3030285;19;4517;-29
2024/03/03 01:14:26;;;;;;;;;;;21.70;38.70;;;;;;3051493;19;4687;-29
2024/03/03 01:15:27;;;;;;;;;;;21.50;38.60;;;;;;3052052;19;4673;-29
2024/03/03 01:16:28;;;;;;;;;;;21.50;38.60;;;;;;3029007;19;4788;-29
2024/03/03 01:17:28;;;;;;;;;;;21.50;38.60;;;;;;3052713;19;4646;-29
2024/03/03 01:18:29;;;;;;;;;;;21.50;38.70;;;;;;3030823;19;4942;-29
2024/03/03 01:19:30;;;;;;;;;;;21.40;39.20;;;;;;3052142;19;4719;-29
2024/03/03 01:20:30;;;;;;;;;;;21.30;38.60;;;;;;3052445;19;4714;-29
2024/03/03 01:21:32;;;;;;;;;;;21.40;38.60;;;;;;3030396;19;4495;-30
2024/03/03 01:22:33;;;;;;;;;;;21.40;38.60;;;;;;3051367;19;4698;-29
2024/03/03 01:23:34;;;;;;;;;;;21.40;38.70;;;;;;3052091;19;4656;-29
2024/03/03 01:24:36;;;;;;;;;;;21.40;38.70;;;;;;3028842;19;4715;-29
2024/03/03 01:25:37;;;;;;;;;;;21.40;38.70;;;;;;3051296;19;4677;-29
2024/03/03 01:26:38;;;;;;;;;;;21.40;38.70;;;;;;3028947;19;4661;-29
2024/03/03 01:27:39;;;;;;;;;;;21.40;38.80;;;;;;3052029;19;4680;-29
2024/03/03 01:28:39;;;;;;;;;;;21.40;38.80;;;;;;3051648;19;4670;-29
2024/03/03 01:29:40;;;;;;;;;;;21.40;38.80;;;;;;3030073;19;4549;-29
2024/03/03 01:30:41;;;;;;;;;;;21.40;38.80;;;;;;3051696;19;4789;-29
2024/03/03 01:31:43;;;;;;;;;;;21.40;38.80;;;;;;3049655;19;4730;-28
2024/03/03 01:32:43;;;;;;;;;;;21.40;38.80;;;;;;3051866;19;4677;-29
2024/03/03 01:33:44;;;;;;;;;;;21.40;38.80;;;;;;3051858;19;5364;-23
2024/03/03 01:34:44;;;;;;;;;;;21.40;38.80;;;;;;3030341;19;4792;-23
2024/03/03 01:35:45;;;;;;;;;;;21.40;38.90;;;;;;3051962;19;4684;-25
2024/03/03 01:36:46;;;;;;;;;;;21.40;38.90;;;;;;3051490;19;4673;-23
2024/03/03 01:37:46;;;;;;;;;;;21.40;38.90;;;;;;3030231;19;4586;-24
2024/03/03 01:38:47;;;;;;;;;;;21.30;38.90;;;;;;3050616;19;4758;-23
2024/03/03 01:39:48;;;;;;;;;;;21.30;38.90;;;;;;3029824;19;4657;-23
2024/03/03 01:40:51;;;;;;;;;;;21.30;38.90;;;;;;3051802;19;4670;-23
2024/03/03 01:41:52;;;;;;;;;;;21.30;39.00;;;;;;3051252;19;4693;-23
2024/03/03 01:42:55;;;;;;;;;;;21.30;39.00;;;;;;3029547;19;4674;-25
2024/03/03 01:43:57;;;;;;;;;;;21.30;39.10;;;;;;3050881;19;4802;-25
2024/03/03 01:44:58;;;;;;;;;;;21.30;39.00;;;;;;3051910;19;4722;-24
2024/03/03 01:45:59;;;;;;;;;;;21.00;38.90;;;;;;3029633;19;4554;-24
2024/03/03 01:47:00;;;;;;;;;;;21.50;39.20;;;;;;3051442;19;4638;-24
2024/03/03 01:48:00;;;;;;;;;;;21.20;39.00;;;;;;3030597;19;4667;-24
2024/03/03 01:49:01;;;;;;;;;;;21.30;39.20;;;;;;3051422;19;4729;-23
2024/03/03 01:50:01;;;;;;;;;;;21.30;39.00;;;;;;3050606;19;4646;-24
2024/03/03 01:51:04;;;;;;;;;;;21.30;39.00;;;;;;3030071;19;4732;-24
2024/03/03 01:52:05;;;;;;;;;;;21.30;39.00;;;;;;3051611;19;4636;-24
2024/03/03 01:53:06;;;;;;;;;;;21.30;39.00;;;;;;3029795;19;4600;-24
2024/03/03 01:54:06;;;;;;;;;;;21.30;39.10;;;;;;3050761;19;4830;-24
2024/03/03 01:55:07;;;;;;;;;;;21.30;39.00;;;;;;3050327;19;4745;-24
2024/03/03 01:56:08;;;;;;;;;;;21.30;39.00;;;;;;3028551;19;4693;-24
2024/03/03 01:57:11;;;;;;;;;;;21.30;39.00;;;;;;3051037;19;1113;-24
2024/03/03 01:58:12;;;;;;;;;;;21.30;39.00;;;;;;3050295;19;4759;-24
2024/03/03 01:59:12;;;;;;;;;;;21.70;39.20;;;;;;3029198;19;4775;-29
2024/03/03 02:00:13;;;;;;;;;;;21.30;38.90;;;;;;3050704;19;4747;-24
2024/03/03 02:01:14;;;;;;;;;;;21.30;38.90;;;;;;3030255;19;4582;-24
2024/03/03 02:02:15;;;;;;;;;;;21.30;39.00;;;;;;3053271;19;4687;-23
2024/03/03 02:03:15;;;;;;;;;;;21.70;39.20;;;;;;3054027;19;4789;-24
2024/03/03 02:04:16;;;;;;;;;;;21.30;39.00;;;;;;3031949;19;4687;-24
2024/03/03 02:05:17;;;;;;;;;;;21.50;39.10;;;;;;3054077;19;4786;-24
2024/03/03 02:06:17;;;;;;;;;;;21.30;39.00;;;;;;3054313;19;4805;-24
2024/03/03 02:07:19;;;;;;;;;;;21.20;38.90;;;;;;3032189;19;4597;-24
2024/03/03 02:08:20;;;;;;;;;;;21.30;39.00;;;;;;3053249;19;4743;-24
2024/03/03 02:09:20;;;;;;;;;;;21.20;38.90;;;;;;3032420;19;4573;-24
2024/03/03 02:10:22;;;;;;;;;;;21.30;39.00;;;;;;3053861;19;4796;-24
2024/03/03 02:11:22;;;;;;;;;;;21.20;39.00;;;;;;3051690;19;4677;-24
2024/03/03 02:12:25;;;;;;;;;;;21.20;39.00;;;;;;3032498;19;4712;-23
2024/03/03 02:13:25;;;;;;;;;;;21.20;38.90;;;;;;3053665;19;4701;-24
2024/03/03 02:14:26;;;;;;;;;;;21.20;39.00;;;;;;3032864;19;4815;-23
2024/03/03 02:15:27;;;;;;;;;;;21.20;39.00;;;;;;3053325;19;4725;-25
2024/03/03 02:16:27;;;;;;;;;;;21.20;39.00;;;;;;3052901;19;4689;-24
2024/03/03 02:17:28;;;;;;;;;;;21.20;39.00;;;;;;3032641;19;4537;-24
2024/03/03 02:18:29;;;;;;;;;;;21.10;38.90;;;;;;3053846;19;4660;-24
2024/03/03 02:19:34;;;;;;;;;;;21.90;39.40;;;;;;3052930;19;4708;-24
2024/03/03 02:20:34;;;;;;;;;;;21.20;39.00;;;;;;3031218;19;4601;-24
2024/03/03 02:21:35;;;;;;;;;;;21.20;39.00;;;;;;3053392;19;4655;-24
2024/03/03 02:22:36;;;;;;;;;;;21.20;39.00;;;;;;3032453;19;4905;-24
2024/03/03 02:23:36;;;;;;;;;;;20.70;38.80;;;;;;3053950;19;4737;-24
2024/03/03 02:24:37;;;;;;;;;;;21.20;39.00;;;;;;3054379;19;4791;-24
2024/03/03 02:25:39;;;;;;;;;;;21.50;39.20;;;;;;3032133;19;4597;-24
2024/03/03 02:26:39;;;;;;;;;;;21.10;39.00;;;;;;3053925;19;5216;-24
2024/03/03 02:27:40;;;;;;;;;;;21.10;39.10;;;;;;3054964;19;4895;-23
2024/03/03 02:28:41;;;;;;;;;;;21.10;39.10;;;;;;3032433;19;4700;-25
2024/03/03 02:29:41;;;;;;;;;;;23.50;40.40;;;;;;3053519;19;4780;-24
2024/03/03 02:30:42;;;;;;;;;;;21.10;39.10;;;;;;3032238;19;4679;-24
2024/03/03 02:31:43;;;;;;;;;;;21.60;39.30;;;;;;3052690;19;4729;-24
2024/03/03 02:32:43;;;;;;;;;;;21.20;39.10;;;;;;3053782;19;5026;-24
2024/03/03 02:33:44;;;;;;;;;;;21.10;39.10;;;;;;3031517;19;4576;-24
2024/03/03 02:34:45;;;;;;;;;;;21.10;39.10;;;;;;3053599;19;4659;-24
2024/03/03 02:35:46;;;;;;;;;;;21.10;39.10;;;;;;3032154;19;4728;-24
2024/03/03 02:36:46;;;;;;;;;;;21.10;39.10;;;;;;3053896;19;4835;-24
2024/03/03 02:37:47;;;;;;;;;;;21.10;39.10;;;;;;3054264;19;4693;-23
2024/03/03 02:38:49;;;;;;;;;;;21.10;39.10;;;;;;3031754;19;4809;-24
2024/03/03 02:39:49;;;;;;;;;;;21.10;39.10;;;;;;3054370;19;4760;-24
2024/03/03 02:40:50;;;;;;;;;;;19.30;38.20;;;;;;3053908;19;4700;-24
2024/03/03 02:41:50;;;;;;;;;;;21.10;39.20;;;;;;3031456;19;4658;-24
2024/03/03 02:42:51;;;;;;;;;;;21.10;39.20;;;;;;3053973;19;4708;-24
2024/03/03 02:43:52;;;;;;;;;;;21.10;39.20;;;;;;3032427;19;4677;-24
2024/03/03 02:44:52;;;;;;;;;;;21.10;39.20;;;;;;3051925;19;4725;-24
2024/03/03 02:45:53;;;;;;;;;;;21.10;39.20;;;;;;3053115;19;4747;-25
2024/03/03 02:46:55;;;;;;;;;;;21.10;39.20;;;;;;3031139;19;4660;-23
2024/03/03 02:47:57;;;;;;;;;;;21.10;39.30;;;;;;3053992;19;4744;-23
2024/03/03 02:48:59;;;;;;;;;;;21.10;39.30;;;;;;3053107;19;5400;-24
2024/03/03 02:50:01;;;;;;;;;;;21.10;39.20;;;;;;3031297;19;4584;-24
2024/03/03 02:51:03;;;;;;;;;;;21.10;39.20;;;;;;3053178;19;4651;-23
2024/03/03 02:52:05;;;;;;;;;;;21.10;39.20;;;;;;3031276;19;4669;-24
2024/03/03 02:53:07;;;;;;;;;;;21.10;39.30;;;;;;3052244;19;5599;-24
2024/03/03 02:54:08;;;;;;;;;;;21.10;39.20;;;;;;3054562;19;4364;-30
2024/03/03 02:55:10;;;;;;;;;;;21.10;39.30;;;;;;3031217;19;4629;-28
2024/03/03 02:56:12;;;;;;;;;;;21.10;39.30;;;;;;3052162;19;4596;-29
2024/03/03 02:57:13;;;;;;;;;;;21.10;39.30;;;;;;3031891;19;4572;-29
2024/03/03 02:58:15;;;;;;;;;;;21.10;39.30;;;;;;3052060;19;4685;-29
2024/03/03 02:59:16;;;;;;;;;;;21.10;39.30;;;;;;3053018;19;4734;-29
2024/03/03 03:00:16;;;;;;;;;;;21.10;39.30;;;;;;3030898;19;4546;-29
2024/03/03 03:01:17;;;;;;;;;;;21.00;39.20;;;;;;3052017;19;4693;-29
2024/03/03 03:02:18;;;;;;;;;;;21.10;39.30;;;;;;3052280;19;4678;-29
2024/03/03 03:03:18;;;;;;;;;;;21.00;39.30;;;;;;3030575;19;4637;-29
2024/03/03 03:04:19;;;;;;;;;;;21.00;39.30;;;;;;3051813;19;4899;-24
2024/03/03 03:05:20;;;;;;;;;;;23.30;40.60;;;;;;3031718;19;4576;-24
2024/03/03 03:06:20;;;;;;;;;;;21.00;39.30;;;;;;3052580;19;4692;-24
2024/03/03 03:07:21;;;;;;;;;;;21.00;39.30;;;;;;3053936;19;4643;-24
2024/03/03 03:08:21;;;;;;;;;;;21.00;39.40;;;;;;3030171;19;4711;-24
2024/03/03 03:09:22;;;;;;;;;;;21.00;39.40;;;;;;3053165;19;4742;-24
2024/03/03 03:10:23;;;;;;;;;;;20.90;40.00;;;;;;3034102;19;4688;-24
2024/03/03 03:11:26;;;;;;;;;;;21.00;39.40;;;;;;3053180;19;4692;-24
2024/03/03 03:12:27;;;;;;;;;;;21.00;39.40;;;;;;3053552;19;4729;-24
2024/03/03 03:13:27;;;;;;;;;;;21.00;39.40;;;;;;3031612;19;4579;-24
2024/03/03 03:14:28;;;;;;;;;;;21.00;39.40;;;;;;3052613;19;4856;-24
2024/03/03 03:15:32;;;;;;;;;;;21.00;39.40;;;;;;3053737;19;4708;-24
2024/03/03 03:16:32;;;;;;;;;;;21.00;39.40;;;;;;3031671;19;4624;-24
2024/03/03 03:17:33;;;;;;;;;;;21.00;39.40;;;;;;3053540;19;4754;-24
2024/03/03 03:18:34;;;;;;;;;;;21.00;39.40;;;;;;3031764;19;4772;-24
2024/03/03 03:19:34;;;;;;;;;;;21.00;39.40;;;;;;3053661;19;4693;-24
2024/03/03 03:20:35;;;;;;;;;;;21.00;39.40;;;;;;3053479;19;4650;-24
2024/03/03 03:21:36;;;;;;;;;;;21.00;39.40;;;;;;3031562;19;4612;-24
2024/03/03 03:22:36;;;;;;;;;;;21.30;39.50;;;;;;3052921;19;4739;-23
2024/03/03 03:23:37;;;;;;;;;;;21.00;39.40;;;;;;3052774;19;4714;-24
2024/03/03 03:24:38;;;;;;;;;;;21.00;39.40;;;;;;3028196;19;4648;-24
2024/03/03 03:25:38;;;;;;;;;;;20.70;39.20;;;;;;3053148;19;4731;-24
2024/03/03 03:26:40;;;;;;;;;;;20.60;39.10;;;;;;3031433;19;4756;-24
2024/03/03 03:27:41;;;;;;;;;;;21.00;39.40;;;;;;3053441;19;4736;-24
2024/03/03 03:28:41;;;;;;;;;;;21.00;39.40;;;;;;3053274;19;4722;-27
2024/03/03 03:29:43;;;;;;;;;;;21.00;39.40;;;;;;3031282;19;4761;-24
2024/03/03 03:30:44;;;;;;;;;;;20.90;39.30;;;;;;3053228;19;4697;-24
2024/03/03 03:31:44;;;;;;;;;;;20.90;39.30;;;;;;3031365;19;4682;-24
2024/03/03 03:32:45;;;;;;;;;;;20.90;40.00;;;;;;3052835;19;4719;-23
2024/03/03 03:33:46;;;;;;;;;;;20.90;39.30;;;;;;3053572;19;4702;-24
2024/03/03 03:34:46;;;;;;;;;;;20.90;39.30;;;;;;3031933;19;4710;-23
2024/03/03 03:35:47;;;;;;;;;;;20.90;39.30;;;;;;3053471;19;4662;-24
2024/03/03 03:36:48;;;;;;;;;;;20.70;39.20;;;;;;3053454;19;4703;-25
2024/03/03 03:37:48;;;;;;;;;;;20.90;39.30;;;;;;3031882;19;4849;-23
2024/03/03 03:38:49;;;;;;;;;;;21.00;39.40;;;;;;3050187;19;4699;-24
2024/03/03 03:39:49;;;;;;;;;;;21.20;40.20;;;;;;3031511;19;4686;-24
2024/03/03 03:40:50;;;;;;;;;;;20.90;39.40;;;;;;3052741;19;4694;-24
2024/03/03 03:41:51;;;;;;;;;;;20.90;39.30;;;;;;3052532;19;4619;-24
2024/03/03 03:42:51;;;;;;;;;;;20.90;39.30;;;;;;3031232;19;4651;-24
2024/03/03 03:43:52;;;;;;;;;;;20.90;39.30;;;;;;3052351;19;4609;-24
2024/03/03 03:44:53;;;;;;;;;;;20.90;39.60;;;;;;3052035;19;4648;-24
2024/03/03 03:45:53;;;;;;;;;;;20.90;39.70;;;;;;3031007;19;4599;-23
2024/03/03 03:46:54;;;;;;;;;;;20.90;39.70;;;;;;3052589;19;4919;-23
2024/03/03 03:47:54;;;;;;;;;;;21.00;39.70;;;;;;3031826;19;4636;-24
2024/03/03 03:48:55;;;;;;;;;;;21.00;39.60;;;;;;3051806;19;4664;-23
2024/03/03 03:49:56;;;;;;;;;;;21.00;39.40;;;;;;3052740;19;4703;-24
2024/03/03 03:50:56;;;;;;;;;;;21.00;39.50;;;;;;3031489;19;4687;-24
2024/03/03 03:52:02;;;;;;;;;;;21.10;39.50;;;;;;3053023;19;4709;-24
2024/03/03 03:53:03;;;;;;;;;;;20.90;39.20;;;;;;3038870;19;4693;-24
2024/03/03 03:54:04;;;;;;;;;;;21.10;39.40;;;;;;3052853;19;4722;-24
2024/03/03 03:55:05;;;;;;;;;;;21.10;39.30;;;;;;3052739;19;5552;-23
2024/03/03 03:56:06;;;;;;;;;;;21.10;39.30;;;;;;3032107;19;4566;-24
2024/03/03 03:57:07;;;;;;;;;;;21.20;39.30;;;;;;3051474;19;4718;-24
2024/03/03 03:58:07;;;;;;;;;;;21.30;39.20;;;;;;3053444;19;4705;-24
2024/03/03 03:59:08;;;;;;;;;;;21.30;39.00;;;;;;3030793;19;4755;-24
2024/03/03 04:00:10;;;;;;;;;;;21.30;38.90;;;;;;3052579;19;4722;-24
2024/03/03 04:01:19;;;;;;;;;;;19.10;37.60;;;;;;3032207;19;4167;-24
2024/03/03 04:02:20;;;;;;;;;;;21.40;38.80;;;;;;3051880;19;4649;-24
2024/03/03 04:03:20;;;;;;;;;;;21.10;38.60;;;;;;3052071;19;4676;-23
2024/03/03 04:04:21;;;;;;;;;;;21.50;38.80;;;;;;3031084;19;4711;-29
2024/03/03 04:05:22;;;;;;;;;;;21.30;38.80;;;;;;3051717;19;4753;-23
2024/03/03 04:06:26;;;;;;;;;;;21.40;38.70;;;;;;3034239;19;4699;-24
2024/03/03 04:07:27;;;;;;;;;;;21.30;38.80;;;;;;3054038;19;4668;-24
2024/03/03 04:08:28;;;;;;;;;;;21.20;38.70;;;;;;3053895;19;4670;-23
2024/03/03 04:09:29;;;;;;;;;;;21.30;38.80;;;;;;3031012;19;4597;-23
2024/03/03 04:10:29;;;;;;;;;;;21.40;38.80;;;;;;3053136;19;4675;-23
2024/03/03 04:11:30;;;;;;;;;;;21.40;38.70;;;;;;3051736;19;4745;-24
2024/03/03 04:12:30;;;;;;;;;;;21.50;38.60;;;;;;3031177;19;4558;-24
2024/03/03 04:13:31;;;;;;;;;;;21.50;38.60;;;;;;3052668;19;4692;-23
2024/03/03 04:14:32;;;;;;;;;;;21.50;38.40;;;;;;3029263;19;4706;-23
2024/03/03 04:15:32;;;;;;;;;;;21.60;38.40;;;;;;3051687;19;4718;-24
2024/03/03 04:16:33;;;;;;;;;;;21.50;38.40;;;;;;3051466;19;4794;-24
2024/03/03 04:17:34;;;;;;;;;;;21.60;38.40;;;;;;3030728;19;4562;-24
2024/03/03 04:18:36;;;;;;;;;;;21.50;38.50;;;;;;3052407;19;4697;-24
2024/03/03 04:19:38;;;;;;;;;;;21.60;38.40;;;;;;3052754;19;4731;-24
2024/03/03 04:20:38;;;;;;;;;;;21.60;38.50;;;;;;3030488;19;4859;-24
2024/03/03 04:21:42;;;;;;;;;;;21.50;38.40;;;;;;3052927;19;4671;-23
2024/03/03 04:22:43;;;;;;;;;;;21.60;38.40;;;;;;3030698;19;4860;-24
2024/03/03 04:23:44;;;;;;;;;;;21.50;38.40;;;;;;3051667;19;4685;-24
2024/03/03 04:24:44;;;;;;;;;;;21.70;38.50;;;;;;3052391;19;4681;-23
2024/03/03 04:25:45;;;;;;;;;;;21.50;38.40;;;;;;3031098;19;4513;-24
2024/03/03 04:26:45;;;;;;;;;;;21.50;38.40;;;;;;3052920;19;4693;-24
2024/03/03 04:27:46;;;;;;;;;;;21.50;38.40;;;;;;3030260;19;4739;-24
2024/03/03 04:28:47;;;;;;;;;;;21.50;38.40;;;;;;3052812;19;4549;-24
2024/03/03 04:29:48;;;;;;;;;;;21.30;38.30;;;;;;3052557;19;4701;-24
2024/03/03 04:30:48;;;;;;;;;;;21.50;38.40;;;;;;3029439;19;4751;-24
2024/03/03 04:31:49;;;;;;;;;;;21.50;38.50;;;;;;3052498;19;4634;-24
2024/03/03 04:32:50;;;;;;;;;;;21.50;38.40;;;;;;3051769;19;4847;-24
2024/03/03 04:33:50;;;;;;;;;;;21.50;38.50;;;;;;3030666;19;4529;-24
2024/03/03 04:34:51;;;;;;;;;;;21.50;38.60;;;;;;3052648;19;4670;-23
2024/03/03 04:35:52;;;;;;;;;;;21.40;38.40;;;;;;3030925;19;4681;-24
2024/03/03 04:36:52;;;;;;;;;;;21.50;38.50;;;;;;3051997;19;4648;-23
2024/03/03 04:37:53;;;;;;;;;;;21.40;38.50;;;;;;3052344;19;4753;-24
2024/03/03 04:38:53;;;;;;;;;;;21.40;38.50;;;;;;3030280;19;4638;-23
2024/03/03 04:39:54;;;;;;;;;;;21.40;38.50;;;;;;3052383;19;4660;-24
2024/03/03 04:40:55;;;;;;;;;;;21.50;38.40;;;;;;3051512;19;4654;-24
2024/03/03 04:41:55;;;;;;;;;;;21.50;38.30;;;;;;3029054;19;4661;-23
2024/03/03 04:42:56;;;;;;;;;;;21.50;38.20;;;;;;3052948;19;4742;-25
2024/03/03 04:43:57;;;;;;;;;;;21.50;38.20;;;;;;3031414;19;4642;-27
2024/03/03 04:44:57;;;;;;;;;;;22.40;38.70;;;;;;3052152;19;4784;-24
2024/03/03 04:45:58;;;;;;;;;;;21.50;38.30;;;;;;3052817;19;4677;-24
2024/03/03 04:46:59;;;;;;;;;;;21.50;39.00;;;;;;3030877;19;4638;-23
2024/03/03 04:47:59;;;;;;;;;;;21.50;38.30;;;;;;3051518;19;4634;-23
2024/03/03 04:49:00;;;;;;;;;;;21.50;38.20;;;;;;3052709;19;4660;-24
2024/03/03 04:50:01;;;;;;;;;;;21.60;38.20;;;;;;3027859;19;4510;-24
2024/03/03 04:51:01;;;;;;;;;;;21.60;38.20;;;;;;3052339;19;4673;-24
2024/03/03 04:52:03;;;;;;;;;;;21.70;38.30;;;;;;3030642;19;4595;-23
2024/03/03 04:53:04;;;;;;;;;;;21.80;38.30;;;;;;3052145;19;4674;-24
2024/03/03 04:54:04;;;;;;;;;;;21.80;38.10;;;;;;3052683;19;4779;-24
2024/03/03 04:55:05;;;;;;;;;;;21.50;37.90;;;;;;3030270;19;4626;-23
2024/03/03 04:56:06;;;;;;;;;;;21.90;38.10;;;;;;3051933;19;4668;-23
2024/03/03 04:57:07;;;;;;;;;;;21.90;38.10;;;;;;3029143;19;4634;-25
2024/03/03 04:58:07;;;;;;;;;;;21.70;37.90;;;;;;3051677;19;4730;-24
2024/03/03 04:59:08;;;;;;;;;;;22.00;38.00;;;;;;3050335;19;4781;-24
2024/03/03 05:00:09;;;;;;;;;;;22.00;37.80;;;;;;3031103;19;4141;-24
2024/03/03 05:01:10;;;;;;;;;;;22.00;37.90;;;;;;3050888;19;4752;-24
2024/03/03 05:02:11;;;;;;;;;;;22.00;37.80;;;;;;3052315;19;4714;-25
2024/03/03 05:03:11;;;;;;;;;;;22.00;37.70;;;;;;3029908;19;4719;-24
2024/03/03 05:04:13;;;;;;;;;;;22.00;37.70;;;;;;3051505;19;4842;-23
2024/03/03 05:05:14;;;;;;;;;;;22.00;37.70;;;;;;3029443;19;4577;-24
2024/03/03 05:06:14;;;;;;;;;;;22.00;37.70;;;;;;3052072;19;4682;-24
2024/03/03 05:07:15;;;;;;;;;;;22.00;37.70;;;;;;3051898;19;4721;-24
2024/03/03 05:08:16;;;;;;;;;;;21.90;37.70;;;;;;3030823;19;4179;-24
2024/03/03 05:09:17;;;;;;;;;;;21.90;37.70;;;;;;3050913;19;4724;-24
2024/03/03 05:10:17;;;;;;;;;;;21.90;37.70;;;;;;3052124;19;4701;-24
2024/03/03 05:11:18;;;;;;;;;;;21.90;37.70;;;;;;3030612;19;4590;-24
2024/03/03 05:12:18;;;;;;;;;;;22.00;37.80;;;;;;3051858;19;4638;-24
2024/03/03 05:13:19;;;;;;;;;;;21.80;37.80;;;;;;3030396;19;4542;-24
2024/03/03 05:14:21;;;;;;;;;;;21.80;37.70;;;;;;3051821;19;4721;-24
2024/03/03 05:15:21;;;;;;;;;;;21.80;37.70;;;;;;3051565;19;4721;-24
2024/03/03 05:16:22;;;;;;;;;;;21.40;37.60;;;;;;3030150;19;4660;-24
2024/03/03 05:17:23;;;;;;;;;;;21.80;37.80;;;;;;3051535;19;4745;-24
2024/03/03 05:18:23;;;;;;;;;;;21.80;37.80;;;;;;3028292;19;4734;-29
2024/03/03 05:19:24;;;;;;;;;;;21.20;37.50;;;;;;3051230;19;4687;-24
2024/03/03 05:20:25;;;;;;;;;;;21.70;37.70;;;;;;3050909;19;4656;-24
2024/03/03 05:21:26;;;;;;;;;;;22.20;37.90;;;;;;3029239;19;4610;-24
2024/03/03 05:22:26;;;;;;;;;;;21.50;37.50;;;;;;3051631;19;4748;-23
2024/03/03 05:23:27;;;;;;;;;;;21.50;37.60;;;;;;3050940;19;4656;-24
2024/03/03 05:24:28;;;;;;;;;;;21.70;37.70;;;;;;3029977;19;4755;-24
2024/03/03 05:25:28;;;;;;;;;;;21.70;37.80;;;;;;3051876;19;4738;-24
2024/03/03 05:26:29;;;;;;;;;;;21.80;37.90;;;;;;3030425;19;4631;-24
2024/03/03 05:27:30;;;;;;;;;;;21.80;37.90;;;;;;3049545;19;4672;-24
2024/03/03 05:28:32;;;;;;;;;;;21.90;37.90;;;;;;3051982;19;4848;-24
2024/03/03 05:29:33;;;;;;;;;;;21.90;37.80;;;;;;3028624;19;4576;-24
2024/03/03 05:30:36;;;;;;;;;;;22.40;38.00;;;;;;3051182;19;4672;-24
2024/03/03 05:31:41;;;;;;;;;;;22.30;37.90;;;;;;3052603;19;4672;-24
2024/03/03 05:32:41;;;;;;;;;;;22.00;37.70;;;;;;3029340;19;4656;-24
2024/03/03 05:33:42;;;;;;;;;;;22.00;37.70;;;;;;3050942;19;4687;-23
2024/03/03 05:34:43;;;;;;;;;;;22.00;37.70;;;;;;3029761;19;4626;-23
2024/03/03 05:35:43;;;;;;;;;;;22.00;38.20;;;;;;3050675;19;4719;-24
2024/03/03 05:36:45;;;;;;;;;;;21.90;37.50;;;;;;3054602;19;4661;-23
2024/03/03 05:37:46;;;;;;;;;;;21.90;37.60;;;;;;3032865;19;4721;-24
2024/03/03 05:38:46;;;;;;;;;;;22.30;37.80;;;;;;3053738;19;4709;-24
2024/03/03 05:39:47;;;;;;;;;;;21.90;37.50;;;;;;3033285;19;4721;-24
2024/03/03 05:40:48;;;;;;;;;;;22.80;38.10;;;;;;3054151;19;4789;-24
2024/03/03 05:41:48;;;;;;;;;;;21.90;37.50;;;;;;3054368;19;4660;-24
2024/03/03 05:42:49;;;;;;;;;;;22.00;37.60;;;;;;3032817;19;4651;-23
2024/03/03 05:43:50;;;;;;;;;;;21.80;37.50;;;;;;3054526;19;4759;-24
2024/03/03 05:44:50;;;;;;;;;;;21.80;37.60;;;;;;3054581;19;4625;-24
2024/03/03 05:45:51;;;;;;;;;;;21.90;37.60;;;;;;3033298;19;4576;-24
2024/03/03 05:46:51;;;;;;;;;;;21.40;37.30;;;;;;3054536;19;4691;-24
2024/03/03 05:47:54;;;;;;;;;;;21.80;37.50;;;;;;3033696;19;4731;-27
2024/03/03 05:48:55;;;;;;;;;;;21.80;37.40;;;;;;3054514;19;4665;-24
2024/03/03 05:49:55;;;;;;;;;;;21.70;37.30;;;;;;3053511;19;4907;-23
2024/03/03 05:50:56;;;;;;;;;;;21.50;37.30;;;;;;3033289;19;4828;-24
2024/03/03 05:51:57;;;;;;;;;;;21.70;37.50;;;;;;3054572;19;4841;-24
2024/03/03 05:52:58;;;;;;;;;;;21.70;37.60;;;;;;3054822;19;4620;-24
2024/03/03 05:54:01;;;;;;;;;;;21.70;37.50;;;;;;3032366;19;4562;-24
2024/03/03 05:55:02;;;;;;;;;;;21.70;37.50;;;;;;3054226;19;4612;-29
2024/03/03 05:56:03;;;;;;;;;;;21.70;37.40;;;;;;3033194;19;4636;-24
2024/03/03 05:57:04;;;;;;;;;;;21.70;37.40;;;;;;3051753;19;4641;-23
2024/03/03 05:58:05;;;;;;;;;;;21.70;37.40;;;;;;3053932;19;4677;-24
2024/03/03 05:59:05;;;;;;;;;;;21.70;37.40;;;;;;3032909;19;4615;-23
2024/03/03 06:00:06;;;;;;;;;;;21.70;37.40;;;;;;3053083;19;4660;-28